sensor_id;sensor_type;location;lat;lon;timestamp;temperature;humidity
16287;DHT22;8251;53.568;10.018;2023-12-14T00:02:34;8.00;90.00
16287;DHT22;8251;53.568;10.018;2023-12-14T00:05:05;8.10;90.10
16287;DHT22;8251;53.568;10.018;2023-12-14T00:07:42;8.00;90.10
16287;DHT22;8251;53.568;10.018;2023-12-14T00:10:10;8.10;90.20
16287;DHT22;8251;53.568;10.018;2023-12-14T00:12:38;8.10;90.10
16287;DHT22;8251;53.568;10.018;2023-12-14T00:15:07;8.10;90.00
16287;DHT22;8251;53.568;10.018;2023-12-14T00:17:38;8.10;90.10
16287;DHT22;8251;53.568;10.018;2023-12-14T00:20:10;8.10;90.10
16287;DHT22;8251;53.568;10.018;2023-12-14T00:22:51;8.10;90.20
16287;DHT22;8251;53.568;10.018;2023-12-14T00:25:19;8.20;90.10
16287;DHT22;8251;53.568;10.018;2023-12-14T00:27:48;8.20;90.20
16287;DHT22;8251;53.568;10.018;2023-12-14T00:30:18;8.20;90.10
16287;DHT22;8251;53.568;10.018;2023-12-14T00:32:48;8.40;90.10
16287;DHT22;8251;53.568;10.018;2023-12-14T00:35:15;8.30;90.20
16287;DHT22;8251;53.568;10.018;2023-12-14T00:37:43;8.30;90.20
16287;DHT22;8251;53.568;10.018;2023-12-14T00:40:12;8.30;90.10
16287;DHT22;8251;53.568;10.018;2023-12-14T00:42:42;8.30;90.10
16287;DHT22;8251;53.568;10.018;2023-12-14T00:45:13;8.30;90.20
16287;DHT22;8251;53.568;10.018;2023-12-14T00:47:52;8.20;90.10
16287;DHT22;8251;53.568;10.018;2023-12-14T00:50:21;8.30;90.10
16287;DHT22;8251;53.568;10.018;2023-12-14T00:52:49;8.30;90.20
16287;DHT22;8251;53.568;10.018;2023-12-14T00:55:16;8.30;90.30
16287;DHT22;8251;53.568;10.018;2023-12-14T00:57:49;8.40;90.30
16287;DHT22;8251;53.568;10.018;2023-12-14T01:00:18;8.40;90.30
16287;DHT22;8251;53.568;10.018;2023-12-14T01:02:50;8.40;90.20
16287;DHT22;8251;53.568;10.018;2023-12-14T01:05:17;8.40;90.10
16287;DHT22;8251;53.568;10.018;2023-12-14T01:07:44;8.40;90.10
16287;DHT22;8251;53.568;10.018;2023-12-14T01:10:13;8.50;90.20
16287;DHT22;8251;53.568;10.018;2023-12-14T01:12:42;8.40;90.00
16287;DHT22;8251;53.568;10.018;2023-12-14T01:15:11;8.40;90.10
16287;DHT22;8251;53.568;10.018;2023-12-14T01:17:40;8.30;90.10
16287;DHT22;8251;53.568;10.018;2023-12-14T01:20:15;8.30;90.30
16287;DHT22;8251;53.568;10.018;2023-12-14T01:22:43;8.40;90.30
16287;DHT22;8251;53.568;10.018;2023-12-14T01:25:15;8.30;90.30
16287;DHT22;8251;53.568;10.018;2023-12-14T01:27:45;8.40;90.30
16287;DHT22;8251;53.568;10.018;2023-12-14T01:30:13;8.30;90.50
16287;DHT22;8251;53.568;10.018;2023-12-14T01:32:40;8.30;90.50
16287;DHT22;8251;53.568;10.018;2023-12-14T01:35:14;8.30;90.50
16287;DHT22;8251;53.568;10.018;2023-12-14T01:37:42;8.30;90.50
16287;DHT22;8251;53.568;10.018;2023-12-14T01:40:10;8.30;90.60
16287;DHT22;8251;53.568;10.018;2023-12-14T01:42:52;8.30;90.70
16287;DHT22;8251;53.568;10.018;2023-12-14T01:45:20;8.40;90.70
16287;DHT22;8251;53.568;10.018;2023-12-14T01:47:55;8.40;90.80
16287;DHT22;8251;53.568;10.018;2023-12-14T01:50:30;8.40;90.70
16287;DHT22;8251;53.568;10.018;2023-12-14T01:52:58;8.60;90.70
16287;DHT22;8251;53.568;10.018;2023-12-14T01:55:28;8.50;90.70
16287;DHT22;8251;53.568;10.018;2023-12-14T01:58:01;8.50;90.60
16287;DHT22;8251;53.568;10.018;2023-12-14T02:03:13;8.60;90.60
16287;DHT22;8251;53.568;10.018;2023-12-14T02:05:45;8.50;90.60
16287;DHT22;8251;53.568;10.018;2023-12-14T02:08:14;8.60;90.60
16287;DHT22;8251;53.568;10.018;2023-12-14T02:10:45;8.60;90.40
16287;DHT22;8251;53.568;10.018;2023-12-14T02:13:13;8.50;90.30
16287;DHT22;8251;53.568;10.018;2023-12-14T02:15:41;8.50;90.40
16287;DHT22;8251;53.568;10.018;2023-12-14T02:18:14;8.50;90.30
16287;DHT22;8251;53.568;10.018;2023-12-14T02:20:42;8.50;90.40
16287;DHT22;8251;53.568;10.018;2023-12-14T02:23:16;8.50;90.60
16287;DHT22;8251;53.568;10.018;2023-12-14T02:25:43;8.60;90.40
16287;DHT22;8251;53.568;10.018;2023-12-14T02:28:12;8.50;90.30
16287;DHT22;8251;53.568;10.018;2023-12-14T02:30:40;8.50;90.40
16287;DHT22;8251;53.568;10.018;2023-12-14T02:33:08;8.50;90.40
16287;DHT22;8251;53.568;10.018;2023-12-14T02:35:42;8.60;90.00
16287;DHT22;8251;53.568;10.018;2023-12-14T02:38:28;8.60;90.30
16287;DHT22;8251;53.568;10.018;2023-12-14T02:40:55;8.60;90.30
16287;DHT22;8251;53.568;10.018;2023-12-14T02:43:22;8.50;90.70
16287;DHT22;8251;53.568;10.018;2023-12-14T02:45:50;8.60;90.40
16287;DHT22;8251;53.568;10.018;2023-12-14T02:48:17;8.60;90.50
16287;DHT22;8251;53.568;10.018;2023-12-14T02:50:50;8.60;90.50
16287;DHT22;8251;53.568;10.018;2023-12-14T02:53:19;8.60;90.40
16287;DHT22;8251;53.568;10.018;2023-12-14T02:55:46;8.60;90.40
16287;DHT22;8251;53.568;10.018;2023-12-14T02:58:14;8.50;90.30
16287;DHT22;8251;53.568;10.018;2023-12-14T03:00:43;8.50;90.30
16287;DHT22;8251;53.568;10.018;2023-12-14T03:03:12;8.50;90.30
16287;DHT22;8251;53.568;10.018;2023-12-14T03:05:39;8.50;90.40
16287;DHT22;8251;53.568;10.018;2023-12-14T03:08:08;8.50;90.50
16287;DHT22;8251;53.568;10.018;2023-12-14T03:10:41;8.50;90.50
16287;DHT22;8251;53.568;10.018;2023-12-14T03:13:12;8.50;90.40
16287;DHT22;8251;53.568;10.018;2023-12-14T03:15:42;8.50;90.30
16287;DHT22;8251;53.568;10.018;2023-12-14T03:18:12;8.50;90.20
16287;DHT22;8251;53.568;10.018;2023-12-14T03:20:39;8.50;90.20
16287;DHT22;8251;53.568;10.018;2023-12-14T03:23:07;8.50;90.30
16287;DHT22;8251;53.568;10.018;2023-12-14T03:25:41;8.50;90.40
16287;DHT22;8251;53.568;10.018;2023-12-14T03:28:11;8.50;90.30
16287;DHT22;8251;53.568;10.018;2023-12-14T03:30:38;8.50;90.30
16287;DHT22;8251;53.568;10.018;2023-12-14T03:33:06;8.50;90.30
16287;DHT22;8251;53.568;10.018;2023-12-14T03:35:33;8.60;90.30
16287;DHT22;8251;53.568;10.018;2023-12-14T03:38:01;8.60;90.30
16287;DHT22;8251;53.568;10.018;2023-12-14T03:40:29;8.60;90.30
16287;DHT22;8251;53.568;10.018;2023-12-14T03:42:59;8.60;90.30
16287;DHT22;8251;53.568;10.018;2023-12-14T03:45:28;8.60;90.00
16287;DHT22;8251;53.568;10.018;2023-12-14T03:47:57;8.60;89.90
16287;DHT22;8251;53.568;10.018;2023-12-14T03:50:25;8.50;89.90
16287;DHT22;8251;53.568;10.018;2023-12-14T03:52:52;8.50;90.00
16287;DHT22;8251;53.568;10.018;2023-12-14T03:55:20;8.50;90.00
16287;DHT22;8251;53.568;10.018;2023-12-14T03:57:49;8.50;90.10
16287;DHT22;8251;53.568;10.018;2023-12-14T04:00:18;8.50;90.10
16287;DHT22;8251;53.568;10.018;2023-12-14T04:02:47;8.50;90.10
16287;DHT22;8251;53.568;10.018;2023-12-14T04:05:16;8.50;89.90
16287;DHT22;8251;53.568;10.018;2023-12-14T04:07:43;8.40;89.90
16287;DHT22;8251;53.568;10.018;2023-12-14T04:10:29;8.40;89.90
16287;DHT22;8251;53.568;10.018;2023-12-14T04:12:56;8.40;90.00
16287;DHT22;8251;53.568;10.018;2023-12-14T04:15:26;8.40;90.00
16287;DHT22;8251;53.568;10.018;2023-12-14T04:17:53;8.40;90.00
16287;DHT22;8251;53.568;10.018;2023-12-14T04:20:21;8.50;90.00
16287;DHT22;8251;53.568;10.018;2023-12-14T04:22:50;8.40;90.00
16287;DHT22;8251;53.568;10.018;2023-12-14T04:25:20;8.40;90.00
16287;DHT22;8251;53.568;10.018;2023-12-14T04:27:50;8.40;89.80
16287;DHT22;8251;53.568;10.018;2023-12-14T04:30:20;8.40;89.70
16287;DHT22;8251;53.568;10.018;2023-12-14T04:32:52;8.40;90.20
16287;DHT22;8251;53.568;10.018;2023-12-14T04:35:25;8.50;90.00
16287;DHT22;8251;53.568;10.018;2023-12-14T04:37:53;8.50;90.00
16287;DHT22;8251;53.568;10.018;2023-12-14T04:40:25;8.50;90.00
16287;DHT22;8251;53.568;10.018;2023-12-14T04:42:54;8.50;89.80
16287;DHT22;8251;53.568;10.018;2023-12-14T04:45:23;8.50;89.90
16287;DHT22;8251;53.568;10.018;2023-12-14T04:47:56;8.50;90.30
16287;DHT22;8251;53.568;10.018;2023-12-14T04:50:24;8.60;90.00
16287;DHT22;8251;53.568;10.018;2023-12-14T04:52:55;8.60;89.80
16287;DHT22;8251;53.568;10.018;2023-12-14T04:55:27;8.60;89.90
16287;DHT22;8251;53.568;10.018;2023-12-14T04:57:58;8.60;90.00
16287;DHT22;8251;53.568;10.018;2023-12-14T05:00:26;8.70;90.00
16287;DHT22;8251;53.568;10.018;2023-12-14T05:02:58;8.60;90.00
16287;DHT22;8251;53.568;10.018;2023-12-14T05:05:24;8.60;90.00
16287;DHT22;8251;53.568;10.018;2023-12-14T05:07:54;8.60;90.10
16287;DHT22;8251;53.568;10.018;2023-12-14T05:10:21;8.60;90.00
16287;DHT22;8251;53.568;10.018;2023-12-14T05:12:50;8.60;90.00
16287;DHT22;8251;53.568;10.018;2023-12-14T05:15:18;8.60;90.10
16287;DHT22;8251;53.568;10.018;2023-12-14T05:17:47;8.60;90.10
16287;DHT22;8251;53.568;10.018;2023-12-14T05:20:20;8.60;90.10
16287;DHT22;8251;53.568;10.018;2023-12-14T05:22:48;8.60;90.10
16287;DHT22;8251;53.568;10.018;2023-12-14T05:25:18;8.60;90.10
16287;DHT22;8251;53.568;10.018;2023-12-14T05:27:49;8.60;90.10
16287;DHT22;8251;53.568;10.018;2023-12-14T05:30:17;8.60;90.20
16287;DHT22;8251;53.568;10.018;2023-12-14T05:32:46;8.70;90.10
16287;DHT22;8251;53.568;10.018;2023-12-14T05:35:13;8.70;90.30
16287;DHT22;8251;53.568;10.018;2023-12-14T05:37:44;8.50;90.30
16287;DHT22;8251;53.568;10.018;2023-12-14T05:40:13;8.60;90.40
16287;DHT22;8251;53.568;10.018;2023-12-14T05:42:51;8.60;90.50
16287;DHT22;8251;53.568;10.018;2023-12-14T05:45:19;8.60;90.60
16287;DHT22;8251;53.568;10.018;2023-12-14T05:47:51;8.70;90.60
16287;DHT22;8251;53.568;10.018;2023-12-14T05:50:22;8.70;90.60
16287;DHT22;8251;53.568;10.018;2023-12-14T05:52:54;8.70;90.60
16287;DHT22;8251;53.568;10.018;2023-12-14T05:55:22;8.70;90.60
16287;DHT22;8251;53.568;10.018;2023-12-14T05:57:52;8.60;90.60
16287;DHT22;8251;53.568;10.018;2023-12-14T06:00:23;8.60;90.60
16287;DHT22;8251;53.568;10.018;2023-12-14T06:02:50;8.60;90.70
16287;DHT22;8251;53.568;10.018;2023-12-14T06:05:23;8.70;90.70
16287;DHT22;8251;53.568;10.018;2023-12-14T06:07:56;8.60;90.70
16287;DHT22;8251;53.568;10.018;2023-12-14T06:10:24;8.60;90.70
16287;DHT22;8251;53.568;10.018;2023-12-14T06:12:53;8.70;90.70
16287;DHT22;8251;53.568;10.018;2023-12-14T06:15:23;8.60;90.70
16287;DHT22;8251;53.568;10.018;2023-12-14T06:17:51;8.60;90.80
16287;DHT22;8251;53.568;10.018;2023-12-14T06:20:20;8.70;90.80
16287;DHT22;8251;53.568;10.018;2023-12-14T06:22:52;8.70;90.80
16287;DHT22;8251;53.568;10.018;2023-12-14T06:25:21;8.70;90.90
16287;DHT22;8251;53.568;10.018;2023-12-14T06:27:49;8.60;90.80
16287;DHT22;8251;53.568;10.018;2023-12-14T06:30:16;8.70;90.90
16287;DHT22;8251;53.568;10.018;2023-12-14T06:32:43;8.60;90.90
16287;DHT22;8251;53.568;10.018;2023-12-14T06:35:12;8.60;91.00
16287;DHT22;8251;53.568;10.018;2023-12-14T06:37:40;8.60;91.00
16287;DHT22;8251;53.568;10.018;2023-12-14T06:40:10;8.70;91.10
16287;DHT22;8251;53.568;10.018;2023-12-14T06:42:39;8.60;91.10
16287;DHT22;8251;53.568;10.018;2023-12-14T06:45:11;8.60;91.10
16287;DHT22;8251;53.568;10.018;2023-12-14T06:47:40;8.60;91.20
16287;DHT22;8251;53.568;10.018;2023-12-14T06:50:11;8.60;91.20
16287;DHT22;8251;53.568;10.018;2023-12-14T06:52:39;8.60;91.20
16287;DHT22;8251;53.568;10.018;2023-12-14T06:55:07;8.80;91.30
16287;DHT22;8251;53.568;10.018;2023-12-14T06:57:45;8.60;91.30
16287;DHT22;8251;53.568;10.018;2023-12-14T07:00:14;8.60;91.30
16287;DHT22;8251;53.568;10.018;2023-12-14T07:02:44;8.60;91.40
16287;DHT22;8251;53.568;10.018;2023-12-14T07:05:12;8.60;91.40
16287;DHT22;8251;53.568;10.018;2023-12-14T07:07:39;8.60;91.40
16287;DHT22;8251;53.568;10.018;2023-12-14T07:10:11;8.70;91.50
16287;DHT22;8251;53.568;10.018;2023-12-14T07:12:44;8.60;91.50
16287;DHT22;8251;53.568;10.018;2023-12-14T07:15:15;8.60;91.50
16287;DHT22;8251;53.568;10.018;2023-12-14T07:17:42;8.60;91.50
16287;DHT22;8251;53.568;10.018;2023-12-14T07:20:10;8.60;91.50
16287;DHT22;8251;53.568;10.018;2023-12-14T07:22:41;8.60;91.50
16287;DHT22;8251;53.568;10.018;2023-12-14T07:25:10;8.60;91.50
16287;DHT22;8251;53.568;10.018;2023-12-14T07:27:41;8.60;91.50
16287;DHT22;8251;53.568;10.018;2023-12-14T07:30:15;8.60;91.50
16287;DHT22;8251;53.568;10.018;2023-12-14T07:32:42;8.60;91.50
16287;DHT22;8251;53.568;10.018;2023-12-14T07:35:12;8.60;91.50
16287;DHT22;8251;53.568;10.018;2023-12-14T07:37:40;8.50;91.50
16287;DHT22;8251;53.568;10.018;2023-12-14T07:40:08;8.50;91.50
16287;DHT22;8251;53.568;10.018;2023-12-14T07:42:42;8.50;91.60
16287;DHT22;8251;53.568;10.018;2023-12-14T07:45:09;8.50;91.60
16287;DHT22;8251;53.568;10.018;2023-12-14T07:47:38;8.50;91.60
16287;DHT22;8251;53.568;10.018;2023-12-14T07:50:06;8.50;91.60
16287;DHT22;8251;53.568;10.018;2023-12-14T07:52:44;8.50;91.50
16287;DHT22;8251;53.568;10.018;2023-12-14T07:55:15;8.50;91.50
16287;DHT22;8251;53.568;10.018;2023-12-14T07:57:43;8.50;91.50
16287;DHT22;8251;53.568;10.018;2023-12-14T08:00:11;8.50;91.40
16287;DHT22;8251;53.568;10.018;2023-12-14T08:02:43;8.50;91.50
16287;DHT22;8251;53.568;10.018;2023-12-14T08:05:10;8.50;91.60
16287;DHT22;8251;53.568;10.018;2023-12-14T08:07:39;8.40;91.50
16287;DHT22;8251;53.568;10.018;2023-12-14T08:10:11;8.40;91.60
16287;DHT22;8251;53.568;10.018;2023-12-14T08:12:41;8.40;91.60
16287;DHT22;8251;53.568;10.018;2023-12-14T08:15:18;8.40;91.50
16287;DHT22;8251;53.568;10.018;2023-12-14T08:17:56;8.40;91.60
16287;DHT22;8251;53.568;10.018;2023-12-14T08:20:26;8.30;91.60
16287;DHT22;8251;53.568;10.018;2023-12-14T08:22:53;8.40;91.60
16287;DHT22;8251;53.568;10.018;2023-12-14T08:25:22;8.50;91.60
16287;DHT22;8251;53.568;10.018;2023-12-14T08:27:49;8.40;91.60
16287;DHT22;8251;53.568;10.018;2023-12-14T08:30:17;8.40;91.60
16287;DHT22;8251;53.568;10.018;2023-12-14T08:33:02;8.50;91.60
16287;DHT22;8251;53.568;10.018;2023-12-14T08:35:35;8.50;91.60
16287;DHT22;8251;53.568;10.018;2023-12-14T08:38:05;8.50;91.60
16287;DHT22;8251;53.568;10.018;2023-12-14T08:40:34;8.50;91.60
16287;DHT22;8251;53.568;10.018;2023-12-14T08:43:03;8.50;91.60
16287;DHT22;8251;53.568;10.018;2023-12-14T08:45:34;8.60;91.50
16287;DHT22;8251;53.568;10.018;2023-12-14T08:48:06;8.50;91.30
16287;DHT22;8251;53.568;10.018;2023-12-14T08:50:33;8.50;91.40
16287;DHT22;8251;53.568;10.018;2023-12-14T08:53:00;8.50;91.50
16287;DHT22;8251;53.568;10.018;2023-12-14T08:55:28;8.50;91.60
16287;DHT22;8251;53.568;10.018;2023-12-14T08:57:55;8.60;91.50
16287;DHT22;8251;53.568;10.018;2023-12-14T09:00:25;8.70;91.50
16287;DHT22;8251;53.568;10.018;2023-12-14T09:02:51;8.60;91.50
16287;DHT22;8251;53.568;10.018;2023-12-14T09:05:23;8.60;91.40
16287;DHT22;8251;53.568;10.018;2023-12-14T09:07:53;8.50;91.30
16287;DHT22;8251;53.568;10.018;2023-12-14T09:10:23;8.60;91.40
16287;DHT22;8251;53.568;10.018;2023-12-14T09:12:52;8.60;91.40
16287;DHT22;8251;53.568;10.018;2023-12-14T09:15:21;8.70;91.30
16287;DHT22;8251;53.568;10.018;2023-12-14T09:17:53;8.60;91.20
16287;DHT22;8251;53.568;10.018;2023-12-14T09:20:26;8.60;91.10
16287;DHT22;8251;53.568;10.018;2023-12-14T09:22:55;8.60;91.20
16287;DHT22;8251;53.568;10.018;2023-12-14T09:25:24;8.60;91.20
16287;DHT22;8251;53.568;10.018;2023-12-14T09:27:51;8.60;91.20
16287;DHT22;8251;53.568;10.018;2023-12-14T09:30:22;8.60;91.20
16287;DHT22;8251;53.568;10.018;2023-12-14T09:32:50;8.60;91.20
16287;DHT22;8251;53.568;10.018;2023-12-14T09:35:25;8.60;91.20
16287;DHT22;8251;53.568;10.018;2023-12-14T09:37:59;8.60;91.10
16287;DHT22;8251;53.568;10.018;2023-12-14T09:40:26;8.70;91.10
16287;DHT22;8251;53.568;10.018;2023-12-14T09:42:55;8.60;91.10
16287;DHT22;8251;53.568;10.018;2023-12-14T09:45:28;8.60;91.10
16287;DHT22;8251;53.568;10.018;2023-12-14T09:47:57;8.70;91.10
16287;DHT22;8251;53.568;10.018;2023-12-14T09:50:30;8.70;91.00
16287;DHT22;8251;53.568;10.018;2023-12-14T09:52:58;8.60;90.70
16287;DHT22;8251;53.568;10.018;2023-12-14T09:55:26;8.60;90.90
16287;DHT22;8251;53.568;10.018;2023-12-14T09:58:05;8.60;90.80
16287;DHT22;8251;53.568;10.018;2023-12-14T10:00:37;8.60;90.80
16287;DHT22;8251;53.568;10.018;2023-12-14T10:03:21;8.50;90.90
16287;DHT22;8251;53.568;10.018;2023-12-14T10:05:55;8.60;91.00
16287;DHT22;8251;53.568;10.018;2023-12-14T10:08:32;8.60;91.00
16287;DHT22;8251;53.568;10.018;2023-12-14T10:10:59;8.60;90.90
16287;DHT22;8251;53.568;10.018;2023-12-14T10:13:38;8.60;90.90
16287;DHT22;8251;53.568;10.018;2023-12-14T10:16:07;8.60;90.90
16287;DHT22;8251;53.568;10.018;2023-12-14T10:18:37;8.60;90.80
16287;DHT22;8251;53.568;10.018;2023-12-14T10:21:09;8.60;90.80
16287;DHT22;8251;53.568;10.018;2023-12-14T10:23:42;8.60;90.80
16287;DHT22;8251;53.568;10.018;2023-12-14T10:26:14;8.60;90.80
16287;DHT22;8251;53.568;10.018;2023-12-14T10:28:44;8.60;90.70
16287;DHT22;8251;53.568;10.018;2023-12-14T10:31:12;8.60;90.60
16287;DHT22;8251;53.568;10.018;2023-12-14T10:33:41;8.60;90.70
16287;DHT22;8251;53.568;10.018;2023-12-14T10:36:10;8.70;90.80
16287;DHT22;8251;53.568;10.018;2023-12-14T10:38:44;8.70;90.60
16287;DHT22;8251;53.568;10.018;2023-12-14T10:41:14;8.80;90.60
16287;DHT22;8251;53.568;10.018;2023-12-14T10:43:49;8.80;90.60
16287;DHT22;8251;53.568;10.018;2023-12-14T10:46:19;8.80;90.60
16287;DHT22;8251;53.568;10.018;2023-12-14T10:48:49;8.90;90.60
16287;DHT22;8251;53.568;10.018;2023-12-14T10:51:21;8.90;90.60
16287;DHT22;8251;53.568;10.018;2023-12-14T10:53:53;9.00;90.40
16287;DHT22;8251;53.568;10.018;2023-12-14T10:56:23;8.90;90.20
16287;DHT22;8251;53.568;10.018;2023-12-14T10:58:52;8.90;90.30
16287;DHT22;8251;53.568;10.018;2023-12-14T11:01:23;8.90;90.20
16287;DHT22;8251;53.568;10.018;2023-12-14T11:03:54;8.90;90.20
16287;DHT22;8251;53.568;10.018;2023-12-14T11:06:31;8.90;89.70
16287;DHT22;8251;53.568;10.018;2023-12-14T11:09:02;8.90;90.00
16287;DHT22;8251;53.568;10.018;2023-12-14T11:11:40;8.80;90.10
16287;DHT22;8251;53.568;10.018;2023-12-14T11:14:08;8.90;90.20
16287;DHT22;8251;53.568;10.018;2023-12-14T11:16:40;8.90;90.20
16287;DHT22;8251;53.568;10.018;2023-12-14T11:19:47;8.90;90.20
16287;DHT22;8251;53.568;10.018;2023-12-14T11:22:28;8.90;90.00
16287;DHT22;8251;53.568;10.018;2023-12-14T11:24:57;8.80;90.10
16287;DHT22;8251;53.568;10.018;2023-12-14T11:27:29;8.80;90.40
16287;DHT22;8251;53.568;10.018;2023-12-14T11:30:02;8.80;90.10
16287;DHT22;8251;53.568;10.018;2023-12-14T11:32:38;8.80;90.30
16287;DHT22;8251;53.568;10.018;2023-12-14T11:35:10;8.80;90.40
16287;DHT22;8251;53.568;10.018;2023-12-14T11:37:45;8.80;90.30
16287;DHT22;8251;53.568;10.018;2023-12-14T11:40:13;8.80;90.10
16287;DHT22;8251;53.568;10.018;2023-12-14T11:42:42;8.80;90.00
16287;DHT22;8251;53.568;10.018;2023-12-14T11:45:12;8.80;90.00
16287;DHT22;8251;53.568;10.018;2023-12-14T11:47:44;8.80;90.10
16287;DHT22;8251;53.568;10.018;2023-12-14T11:50:14;8.90;90.10
16287;DHT22;8251;53.568;10.018;2023-12-14T11:52:57;8.90;90.00
16287;DHT22;8251;53.568;10.018;2023-12-14T11:55:26;9.00;90.10
16287;DHT22;8251;53.568;10.018;2023-12-14T11:57:54;8.90;90.00
16287;DHT22;8251;53.568;10.018;2023-12-14T12:00:25;8.90;90.00
16287;DHT22;8251;53.568;10.018;2023-12-14T12:03:07;9.00;90.00
16287;DHT22;8251;53.568;10.018;2023-12-14T12:05:39;9.00;90.00
16287;DHT22;8251;53.568;10.018;2023-12-14T12:08:10;9.00;90.00
16287;DHT22;8251;53.568;10.018;2023-12-14T12:10:39;9.10;90.00
16287;DHT22;8251;53.568;10.018;2023-12-14T12:13:11;9.00;90.00
16287;DHT22;8251;53.568;10.018;2023-12-14T12:15:41;9.10;90.00
16287;DHT22;8251;53.568;10.018;2023-12-14T12:18:23;9.10;89.90
16287;DHT22;8251;53.568;10.018;2023-12-14T12:20:53;9.10;89.70
16287;DHT22;8251;53.568;10.018;2023-12-14T12:23:32;9.00;89.10
16287;DHT22;8251;53.568;10.018;2023-12-14T12:26:03;9.00;89.50
16287;DHT22;8251;53.568;10.018;2023-12-14T12:28:34;9.00;89.50
16287;DHT22;8251;53.568;10.018;2023-12-14T12:31:04;9.00;89.40
16287;DHT22;8251;53.568;10.018;2023-12-14T12:33:33;9.00;89.60
16287;DHT22;8251;53.568;10.018;2023-12-14T12:36:05;9.10;89.60
16287;DHT22;8251;53.568;10.018;2023-12-14T12:38:37;9.00;89.40
16287;DHT22;8251;53.568;10.018;2023-12-14T12:41:07;9.00;89.60
16287;DHT22;8251;53.568;10.018;2023-12-14T12:43:39;9.00;89.50
16287;DHT22;8251;53.568;10.018;2023-12-14T12:46:07;8.90;89.10
16287;DHT22;8251;53.568;10.018;2023-12-14T12:48:34;8.90;89.50
16287;DHT22;8251;53.568;10.018;2023-12-14T12:51:03;8.90;89.80
16287;DHT22;8251;53.568;10.018;2023-12-14T12:53:34;8.90;89.80
16287;DHT22;8251;53.568;10.018;2023-12-14T12:56:08;8.90;89.70
16287;DHT22;8251;53.568;10.018;2023-12-14T12:58:36;9.00;89.70
16287;DHT22;8251;53.568;10.018;2023-12-14T13:01:08;9.00;89.90
16287;DHT22;8251;53.568;10.018;2023-12-14T13:03:38;9.10;89.70
16287;DHT22;8251;53.568;10.018;2023-12-14T13:06:06;9.00;89.40
16287;DHT22;8251;53.568;10.018;2023-12-14T13:08:34;9.10;89.20
16287;DHT22;8251;53.568;10.018;2023-12-14T13:11:02;9.00;89.20
16287;DHT22;8251;53.568;10.018;2023-12-14T13:13:37;9.00;89.20
16287;DHT22;8251;53.568;10.018;2023-12-14T13:16:16;9.10;89.10
16287;DHT22;8251;53.568;10.018;2023-12-14T13:18:49;9.00;89.20
16287;DHT22;8251;53.568;10.018;2023-12-14T13:21:18;9.00;89.10
16287;DHT22;8251;53.568;10.018;2023-12-14T13:23:47;9.10;89.50
16287;DHT22;8251;53.568;10.018;2023-12-14T13:26:17;8.90;89.20
16287;DHT22;8251;53.568;10.018;2023-12-14T13:28:47;8.90;89.30
16287;DHT22;8251;53.568;10.018;2023-12-14T13:31:18;9.00;89.30
16287;DHT22;8251;53.568;10.018;2023-12-14T13:33:47;8.90;88.70
16287;DHT22;8251;53.568;10.018;2023-12-14T13:36:15;8.90;88.90
16287;DHT22;8251;53.568;10.018;2023-12-14T13:38:44;8.90;89.10
16287;DHT22;8251;53.568;10.018;2023-12-14T13:41:12;8.80;89.10
16287;DHT22;8251;53.568;10.018;2023-12-14T13:43:40;8.80;89.40
16287;DHT22;8251;53.568;10.018;2023-12-14T13:46:10;8.80;89.50
16287;DHT22;8251;53.568;10.018;2023-12-14T13:48:37;8.80;89.20
16287;DHT22;8251;53.568;10.018;2023-12-14T13:54:14;8.80;89.30
16287;DHT22;8251;53.568;10.018;2023-12-14T13:56:43;8.80;89.30
16287;DHT22;8251;53.568;10.018;2023-12-14T13:59:10;8.80;89.30
16287;DHT22;8251;53.568;10.018;2023-12-14T14:01:43;8.70;89.20
16287;DHT22;8251;53.568;10.018;2023-12-14T14:04:10;8.80;88.60
16287;DHT22;8251;53.568;10.018;2023-12-14T14:06:38;8.80;88.80
16287;DHT22;8251;53.568;10.018;2023-12-14T14:09:07;8.80;88.90
16287;DHT22;8251;53.568;10.018;2023-12-14T14:11:36;8.80;88.90
16287;DHT22;8251;53.568;10.018;2023-12-14T14:14:12;8.80;89.00
16287;DHT22;8251;53.568;10.018;2023-12-14T14:16:47;8.80;89.30
16287;DHT22;8251;53.568;10.018;2023-12-14T14:19:17;8.80;89.50
16287;DHT22;8251;53.568;10.018;2023-12-14T14:21:47;8.80;89.50
16287;DHT22;8251;53.568;10.018;2023-12-14T14:24:16;8.80;89.30
16287;DHT22;8251;53.568;10.018;2023-12-14T14:26:47;8.80;89.10
16287;DHT22;8251;53.568;10.018;2023-12-14T14:29:17;8.80;89.10
16287;DHT22;8251;53.568;10.018;2023-12-14T14:31:45;8.80;88.50
16287;DHT22;8251;53.568;10.018;2023-12-14T14:34:14;8.80;88.90
16287;DHT22;8251;53.568;10.018;2023-12-14T14:36:44;8.80;88.90
16287;DHT22;8251;53.568;10.018;2023-12-14T14:39:11;8.80;88.90
16287;DHT22;8251;53.568;10.018;2023-12-14T14:41:41;8.80;89.10
16287;DHT22;8251;53.568;10.018;2023-12-14T14:44:08;8.80;89.20
16287;DHT22;8251;53.568;10.018;2023-12-14T14:46:36;8.80;89.10
16287;DHT22;8251;53.568;10.018;2023-12-14T14:49:08;8.80;89.10
16287;DHT22;8251;53.568;10.018;2023-12-14T14:51:38;8.80;89.10
16287;DHT22;8251;53.568;10.018;2023-12-14T14:54:09;8.80;89.20
16287;DHT22;8251;53.568;10.018;2023-12-14T14:56:39;8.80;88.80
16287;DHT22;8251;53.568;10.018;2023-12-14T14:59:07;8.80;88.60
16287;DHT22;8251;53.568;10.018;2023-12-14T15:01:38;8.80;88.40
16287;DHT22;8251;53.568;10.018;2023-12-14T15:04:13;8.80;88.70
16287;DHT22;8251;53.568;10.018;2023-12-14T15:06:40;8.80;88.70
16287;DHT22;8251;53.568;10.018;2023-12-14T15:09:07;8.70;88.60
16287;DHT22;8251;53.568;10.018;2023-12-14T15:11:35;8.80;88.70
16287;DHT22;8251;53.568;10.018;2023-12-14T15:14:02;8.80;88.50
16287;DHT22;8251;53.568;10.018;2023-12-14T15:16:30;8.80;88.60
16287;DHT22;8251;53.568;10.018;2023-12-14T15:18:58;8.70;88.30
16287;DHT22;8251;53.568;10.018;2023-12-14T15:21:27;8.70;88.50
16287;DHT22;8251;53.568;10.018;2023-12-14T15:23:55;8.70;88.80
16287;DHT22;8251;53.568;10.018;2023-12-14T15:26:22;8.70;88.10
16287;DHT22;8251;53.568;10.018;2023-12-14T15:28:56;8.70;89.00
16287;DHT22;8251;53.568;10.018;2023-12-14T15:31:26;8.80;89.00
16287;DHT22;8251;53.568;10.018;2023-12-14T15:33:54;8.80;88.70
16287;DHT22;8251;53.568;10.018;2023-12-14T15:36:22;8.80;88.80
16287;DHT22;8251;53.568;10.018;2023-12-14T15:38:55;8.70;88.50
16287;DHT22;8251;53.568;10.018;2023-12-14T15:41:24;8.70;88.40
16287;DHT22;8251;53.568;10.018;2023-12-14T15:43:52;8.70;88.60
16287;DHT22;8251;53.568;10.018;2023-12-14T15:46:19;8.70;88.50
16287;DHT22;8251;53.568;10.018;2023-12-14T15:48:48;8.60;88.40
16287;DHT22;8251;53.568;10.018;2023-12-14T15:51:17;8.60;88.20
16287;DHT22;8251;53.568;10.018;2023-12-14T15:53:49;8.60;88.50
16287;DHT22;8251;53.568;10.018;2023-12-14T15:56:18;8.50;88.70
16287;DHT22;8251;53.568;10.018;2023-12-14T15:58:49;8.50;89.40
16287;DHT22;8251;53.568;10.018;2023-12-14T16:01:16;8.50;88.50
16287;DHT22;8251;53.568;10.018;2023-12-14T16:03:43;8.50;88.70
16287;DHT22;8251;53.568;10.018;2023-12-14T16:06:11;8.50;88.70
16287;DHT22;8251;53.568;10.018;2023-12-14T16:08:39;8.40;88.50
16287;DHT22;8251;53.568;10.018;2023-12-14T16:11:07;8.30;88.80